createdAt,value
2023-05-02T00:00:41.879Z,28.74
2023-05-02T00:01:41.928Z,32.56
2023-05-02T00:02:42.094Z,31.35
2023-05-02T00:03:41.968Z,27.56
2023-05-02T00:04:41.937Z,32.11
2023-05-02T00:05:41.940Z,29.88
2023-05-02T00:06:42.017Z,29.30
2023-05-02T00:07:41.993Z,31.25
2023-05-02T00:08:42.020Z,29.52
2023-05-02T00:09:41.989Z,25.33
2023-05-02T00:10:42.009Z,31.84
2023-05-02T00:11:42.039Z,31.43
2023-05-02T00:12:42.065Z,31.83
2023-05-02T00:13:42.043Z,29.90
2023-05-02T00:14:42.103Z,29.09
2023-05-02T00:15:42.108Z,29.84
2023-05-02T00:16:42.160Z,31.82
2023-05-02T00:17:42.128Z,28.17
2023-05-02T00:18:42.113Z,32.53
2023-05-02T00:19:42.184Z,30.91
2023-05-02T00:20:42.253Z,29.61
2023-05-02T00:21:42.211Z,28.49
2023-05-02T00:22:42.195Z,30.92
2023-05-02T00:23:42.242Z,28.44
2023-05-02T00:24:42.241Z,32.76
2023-05-02T00:25:42.291Z,29.32
2023-05-02T00:26:42.294Z,29.78
2023-05-02T00:27:42.252Z,31.45
2023-05-02T00:28:42.317Z,29.77
2023-05-02T00:29:42.319Z,26.95
2023-05-02T00:30:42.368Z,30.97
2023-05-02T00:31:42.560Z,29.57
2023-05-02T00:32:42.410Z,30.95
2023-05-02T00:33:42.356Z,32.65
2023-05-02T00:34:42.379Z,33.51
2023-05-02T00:35:42.411Z,31.87
2023-05-02T00:36:44.335Z,31.10
2023-05-02T00:37:42.446Z,27.59
2023-05-02T00:38:42.445Z,34.11
2023-05-02T00:39:42.442Z,32.87
2023-05-02T00:40:42.460Z,31.73
2023-05-02T00:41:42.486Z,31.39
2023-05-02T00:42:42.475Z,30.54
2023-05-02T00:43:42.532Z,28.40
2023-05-02T00:44:42.531Z,30.42
2023-05-02T00:45:42.568Z,31.97
2023-05-02T00:46:42.612Z,28.50
2023-05-02T00:47:42.606Z,29.24
2023-05-02T00:48:42.606Z,31.42
2023-05-02T00:49:42.722Z,29.66
2023-05-02T00:50:42.619Z,31.39
2023-05-02T00:51:42.634Z,31.24
2023-05-02T00:52:42.624Z,29.99
2023-05-02T00:53:42.690Z,31.20
2023-05-02T00:54:42.677Z,31.84
2023-05-02T00:55:42.714Z,28.11
2023-05-02T00:56:42.736Z,30.10
2023-05-02T00:57:42.702Z,30.04
2023-05-02T00:58:42.705Z,32.00
2023-05-02T00:59:42.726Z,30.45
2023-05-02T01:00:42.758Z,31.46
2023-05-02T01:01:42.836Z,29.28
2023-05-02T01:02:42.815Z,31.97
2023-05-02T01:03:42.844Z,30.65
2023-05-02T01:04:42.809Z,31.79
2023-05-02T01:05:42.830Z,30.29
2023-05-02T01:06:42.922Z,30.40
2023-05-02T01:07:42.848Z,27.84
2023-05-02T01:08:42.902Z,33.86
2023-05-02T01:09:42.916Z,29.77
2023-05-02T01:10:42.903Z,28.99
2023-05-02T01:11:42.912Z,29.55
2023-05-02T01:12:42.925Z,28.09
2023-05-02T01:13:42.956Z,30.50
2023-05-02T01:14:42.990Z,30.98
2023-05-02T01:15:43.022Z,29.79
2023-05-02T01:16:43.061Z,28.18
2023-05-02T01:17:43.060Z,27.23
2023-05-02T01:18:43.003Z,29.28
2023-05-02T01:19:43.047Z,28.36
2023-05-02T01:20:43.067Z,31.63
2023-05-02T01:21:43.058Z,31.26
2023-05-02T01:22:43.082Z,31.51
2023-05-02T01:23:43.087Z,28.36
2023-05-02T01:24:43.150Z,30.56
2023-05-02T01:25:43.152Z,26.33
2023-05-02T01:26:43.129Z,29.84
2023-05-02T01:27:43.163Z,31.62
2023-05-02T01:28:43.164Z,31.37
2023-05-02T01:29:43.180Z,33.24
2023-05-02T01:30:43.201Z,30.54
2023-05-02T01:31:43.246Z,30.55
2023-05-02T01:32:43.246Z,32.94
2023-05-02T01:33:43.236Z,30.55
2023-05-02T01:34:43.266Z,29.81
2023-05-02T01:35:43.278Z,28.63
2023-05-02T01:36:43.298Z,31.92
2023-05-02T01:37:44.080Z,30.50
2023-05-02T01:38:43.321Z,31.55
2023-05-02T01:39:43.318Z,31.98
2023-05-02T01:40:43.433Z,27.49
2023-05-02T01:41:43.337Z,31.79
2023-05-02T01:42:43.359Z,32.50
2023-05-02T01:43:43.391Z,29.58
2023-05-02T01:44:43.425Z,31.57
2023-05-02T01:45:43.408Z,30.63
2023-05-02T01:46:43.481Z,30.87
2023-05-02T01:47:43.467Z,30.11
2023-05-02T01:48:43.490Z,30.65
2023-05-02T01:49:43.492Z,30.95
2023-05-02T01:50:43.518Z,30.54
2023-05-02T01:51:43.504Z,30.39
2023-05-02T01:52:43.538Z,33.27
2023-05-02T01:53:43.563Z,34.29
2023-05-02T01:54:43.563Z,32.06
2023-05-02T01:55:43.578Z,31.52
2023-05-02T01:56:43.587Z,31.56
2023-05-02T01:57:43.586Z,32.13
2023-05-02T01:58:43.597Z,31.44
2023-05-02T01:59:43.632Z,31.52
2023-05-02T02:00:43.695Z,31.11
2023-05-02T02:01:43.830Z,32.10
2023-05-02T02:02:43.666Z,32.19
2023-05-02T02:03:43.827Z,31.23
2023-05-02T02:04:43.822Z,31.04
2023-05-02T02:05:43.771Z,32.22
2023-05-02T02:06:43.845Z,29.06
2023-05-02T02:07:43.778Z,31.31
2023-05-02T02:08:43.793Z,29.44
2023-05-02T02:09:43.797Z,29.29
2023-05-02T02:10:43.842Z,30.67
2023-05-02T02:11:43.825Z,30.73
2023-05-02T02:12:43.982Z,31.11
2023-05-02T02:13:43.876Z,30.07
2023-05-02T02:14:43.900Z,29.89
2023-05-02T02:15:43.924Z,28.23
2023-05-02T02:16:43.979Z,28.99
2023-05-02T02:17:43.987Z,29.34
2023-05-02T02:18:43.994Z,27.68
2023-05-02T02:19:44.041Z,29.88
2023-05-02T02:20:44.024Z,29.98
2023-05-02T02:21:44.056Z,27.73
2023-05-02T02:22:44.076Z,27.60
2023-05-02T02:23:44.097Z,29.75
2023-05-02T02:24:44.118Z,28.02
2023-05-02T02:25:44.118Z,28.98
2023-05-02T02:26:44.170Z,30.41
2023-05-02T02:27:44.167Z,26.12
2023-05-02T02:28:44.226Z,26.77
2023-05-02T02:29:44.234Z,29.92
2023-05-02T02:30:44.243Z,28.96
2023-05-02T02:31:44.227Z,30.63
2023-05-02T02:32:44.313Z,30.35
2023-05-02T02:33:44.277Z,25.64
2023-05-02T02:34:44.277Z,30.63
2023-05-02T02:35:44.359Z,28.24
2023-05-02T02:36:44.342Z,29.91
2023-05-02T02:37:44.362Z,25.00
2023-05-02T02:38:44.382Z,31.01
2023-05-02T02:39:44.411Z,31.97
2023-05-02T02:40:44.421Z,31.68
2023-05-02T02:41:44.428Z,33.69
2023-05-02T02:42:44.466Z,30.94
2023-05-02T02:43:44.490Z,28.59
2023-05-02T02:44:44.518Z,27.63
2023-05-02T02:45:44.500Z,30.55
2023-05-02T02:46:44.541Z,26.57
2023-05-02T02:47:44.556Z,29.44
2023-05-02T02:48:44.551Z,29.46
2023-05-02T02:49:44.613Z,30.32
2023-05-02T02:50:44.632Z,31.37
2023-05-02T02:51:44.632Z,26.81
2023-05-02T02:52:44.663Z,29.26
2023-05-02T02:53:44.676Z,29.73
2023-05-02T02:54:44.670Z,31.91
2023-05-02T02:55:44.705Z,32.52
2023-05-02T02:56:44.789Z,28.93
2023-05-02T02:57:44.748Z,31.97
2023-05-02T02:58:44.755Z,30.02
2023-05-02T02:59:44.772Z,30.28
2023-05-02T03:00:44.832Z,30.79
2023-05-02T03:01:44.910Z,32.35
2023-05-02T03:02:44.877Z,30.59
2023-05-02T03:03:44.883Z,31.18
2023-05-02T03:04:44.920Z,28.92
2023-05-02T03:05:44.883Z,27.99
2023-05-02T03:06:44.937Z,27.41
2023-05-02T03:07:44.931Z,30.25
2023-05-02T03:08:44.985Z,28.67
2023-05-02T03:09:45.070Z,27.27
2023-05-02T03:10:45.015Z,27.55
2023-05-02T03:11:45.034Z,30.29
2023-05-02T03:12:45.045Z,33.34
2023-05-02T03:13:45.086Z,30.15
2023-05-02T03:14:45.101Z,28.75
2023-05-02T03:15:45.194Z,29.95
2023-05-02T03:16:45.225Z,31.26
2023-05-02T03:17:45.230Z,30.04
2023-05-02T03:18:45.183Z,25.00
2023-05-02T03:19:45.224Z,28.62
2023-05-02T03:20:45.248Z,29.46
2023-05-02T03:21:45.274Z,30.32
2023-05-02T03:22:45.257Z,30.33
2023-05-02T03:23:45.311Z,31.31
2023-05-02T03:24:45.330Z,31.77
2023-05-02T03:25:45.340Z,28.66
2023-05-02T03:26:45.361Z,29.14
2023-05-02T03:27:45.417Z,31.74
2023-05-02T03:28:45.448Z,32.23
2023-05-02T03:29:45.427Z,29.40
2023-05-02T03:30:45.430Z,30.82
2023-05-02T03:31:45.524Z,30.83
2023-05-02T03:32:45.524Z,31.32
2023-05-02T03:33:45.540Z,30.17
2023-05-02T03:34:45.547Z,30.41
2023-05-02T03:35:45.529Z,31.39
2023-05-02T03:36:45.567Z,26.09
2023-05-02T03:37:45.561Z,25.89
2023-05-02T03:38:45.628Z,28.81
2023-05-02T03:39:45.608Z,29.43
2023-05-02T03:40:45.646Z,30.58
2023-05-02T03:41:45.690Z,32.41
2023-05-02T03:42:45.712Z,33.44
2023-05-02T03:43:45.732Z,33.28
2023-05-02T03:44:45.755Z,31.47
2023-05-02T03:45:47.635Z,30.09
2023-05-02T03:46:45.800Z,30.44
2023-05-02T03:47:45.816Z,29.41
2023-05-02T03:48:45.752Z,30.88
2023-05-02T03:49:45.739Z,29.48
2023-05-02T03:50:45.749Z,31.81
2023-05-02T03:51:45.707Z,28.18
2023-05-02T03:52:45.690Z,29.15
2023-05-02T03:53:45.725Z,28.22
2023-05-02T03:54:45.688Z,28.73
2023-05-02T03:55:45.705Z,28.09
2023-05-02T03:56:45.710Z,30.82
2023-05-02T03:57:45.700Z,26.86
2023-05-02T03:58:45.674Z,28.62
2023-05-02T03:59:45.686Z,30.13
2023-05-02T04:00:45.660Z,30.33
2023-05-02T04:01:45.667Z,25.48
2023-05-02T04:02:45.717Z,28.15
2023-05-02T04:03:45.793Z,28.27
2023-05-02T04:04:45.698Z,31.17
2023-05-02T04:05:45.644Z,28.59
2023-05-02T04:06:45.740Z,32.93
2023-05-02T04:07:45.585Z,31.43
2023-05-02T04:08:45.612Z,29.83
2023-05-02T04:09:45.633Z,30.68
2023-05-02T04:10:45.585Z,30.38
2023-05-02T04:11:45.601Z,31.34
2023-05-02T04:12:45.597Z,28.44
2023-05-02T04:13:45.599Z,31.46
2023-05-02T04:14:45.577Z,28.63
2023-05-02T04:15:45.570Z,29.90
2023-05-02T04:16:45.584Z,28.27
2023-05-02T04:17:45.558Z,30.24
2023-05-02T04:18:45.535Z,27.10
2023-05-02T04:19:45.533Z,29.03
2023-05-02T04:20:45.518Z,30.29
2023-05-02T04:21:45.557Z,28.45
2023-05-02T04:22:45.543Z,32.30
2023-05-02T04:23:45.550Z,29.33
2023-05-02T04:24:45.524Z,27.19
2023-05-02T04:25:45.485Z,27.92
2023-05-02T04:26:45.473Z,28.37
2023-05-02T04:27:45.494Z,31.83
2023-05-02T04:28:45.476Z,32.27
2023-05-02T04:29:45.487Z,31.64
2023-05-02T04:30:45.549Z,29.90
2023-05-02T04:31:45.450Z,29.40
2023-05-02T04:32:45.484Z,29.68
2023-05-02T04:33:45.448Z,30.23
2023-05-02T04:34:45.447Z,28.46
2023-05-02T04:35:45.419Z,30.63
2023-05-02T04:36:45.415Z,28.88
2023-05-02T04:37:45.438Z,28.31
2023-05-02T04:38:45.404Z,30.89
2023-05-02T04:39:45.457Z,29.09
2023-05-02T04:40:45.377Z,31.76
2023-05-02T04:41:45.392Z,25.93
2023-05-02T04:42:45.361Z,31.43
2023-05-02T04:43:45.397Z,28.93
2023-05-02T04:44:45.385Z,26.99
2023-05-02T04:45:45.350Z,30.92
2023-05-02T04:46:45.578Z,29.79
2023-05-02T04:47:45.452Z,32.32
2023-05-02T04:48:45.348Z,31.24
2023-05-02T04:49:45.337Z,31.98
2023-05-02T04:50:45.347Z,30.69
2023-05-02T04:51:45.314Z,27.96
2023-05-02T04:52:45.374Z,34.23
2023-05-02T04:53:45.334Z,30.92
2023-05-02T04:54:45.309Z,31.99
2023-05-02T04:55:45.283Z,30.81
2023-05-02T04:56:45.294Z,32.06
2023-05-02T04:57:45.283Z,29.30
2023-05-02T04:58:45.304Z,34.05
2023-05-02T04:59:45.272Z,30.57
2023-05-02T05:00:45.278Z,31.83
2023-05-02T05:01:45.297Z,32.50
2023-05-02T05:02:45.399Z,32.34
2023-05-02T05:03:45.373Z,31.66
2023-05-02T05:04:45.330Z,29.16
2023-05-02T05:05:45.408Z,30.96
2023-05-02T05:06:45.408Z,32.38
2023-05-02T05:07:45.384Z,29.47
2023-05-02T05:08:45.387Z,27.29
2023-05-02T05:09:45.438Z,33.37
2023-05-02T05:10:45.459Z,30.62
2023-05-02T05:11:45.500Z,30.57
2023-05-02T05:12:45.502Z,28.83
2023-05-02T05:13:45.528Z,28.80
2023-05-02T05:14:45.559Z,28.95
2023-05-02T05:15:45.627Z,31.01
2023-05-02T05:16:45.647Z,30.54
2023-05-02T05:17:45.666Z,32.78
2023-05-02T05:18:45.649Z,30.48
2023-05-02T05:19:46.198Z,30.49
2023-05-02T05:20:45.668Z,30.08
2023-05-02T05:21:45.748Z,32.20
2023-05-02T05:22:45.783Z,30.41
2023-05-02T05:23:45.761Z,28.73
2023-05-02T05:24:45.797Z,33.18
2023-05-02T05:25:46.066Z,29.35
2023-05-02T05:26:45.810Z,30.04
2023-05-02T05:27:45.853Z,30.60
2023-05-02T05:28:45.882Z,29.49
2023-05-02T05:29:45.886Z,31.55
2023-05-02T05:30:45.909Z,33.52
2023-05-02T05:31:46.014Z,32.16
2023-05-02T05:32:45.962Z,32.08
2023-05-02T05:33:45.994Z,31.01
2023-05-02T05:34:45.993Z,33.98
2023-05-02T05:35:46.035Z,33.08
2023-05-02T05:36:46.054Z,39.16
2023-05-02T05:37:46.094Z,41.86
2023-05-02T05:38:46.189Z,39.02
2023-05-02T05:39:46.116Z,40.18
2023-05-02T05:40:46.111Z,38.82
2023-05-02T05:41:46.153Z,40.39
2023-05-02T05:42:46.148Z,42.03
2023-05-02T05:43:46.164Z,49.22
2023-05-02T05:44:46.197Z,52.99
2023-05-02T05:45:46.175Z,58.86
2023-05-02T05:46:46.230Z,63.51
2023-05-02T05:47:46.240Z,64.60
2023-05-02T05:48:46.239Z,74.69
2023-05-02T05:49:46.222Z,80.50
2023-05-02T05:50:46.233Z,90.45
2023-05-02T05:51:46.246Z,120.72
2023-05-02T05:52:46.248Z,129.52
2023-05-02T05:53:46.299Z,135.77
2023-05-02T05:54:46.722Z,146.24
2023-05-02T05:55:46.313Z,150.34
2023-05-02T05:56:46.325Z,156.60
2023-05-02T05:57:46.341Z,162.16
2023-05-02T05:58:46.313Z,168.68
2023-05-02T05:59:46.327Z,176.30
2023-05-02T06:00:46.322Z,183.86
2023-05-02T06:01:46.342Z,186.11
2023-05-02T06:02:46.441Z,191.89
2023-05-02T06:03:46.518Z,198.90
2023-05-02T06:04:46.429Z,214.06
2023-05-02T06:05:46.322Z,216.75
2023-05-02T06:06:46.406Z,226.05
2023-05-02T06:07:46.323Z,234.63
2023-05-02T06:08:46.330Z,236.64
2023-05-02T06:09:46.388Z,240.73
2023-05-02T06:10:46.422Z,248.56
2023-05-02T06:11:46.471Z,250.00
2023-05-02T06:12:47.278Z,250.00
2023-05-02T06:13:46.665Z,250.00
2023-05-02T06:14:47.229Z,248.75
2023-05-02T06:15:46.852Z,254.23
2023-05-02T06:16:46.909Z,248.35
2023-05-02T06:17:46.968Z,249.51
2023-05-02T06:18:46.976Z,249.82
2023-05-02T06:19:47.109Z,247.80
2023-05-02T06:20:47.089Z,249.87
2023-05-02T06:21:47.125Z,250.00
2023-05-02T06:22:47.224Z,250.00
2023-05-02T06:23:47.274Z,248.27
2023-05-02T06:24:47.305Z,248.98
2023-05-02T06:25:47.356Z,248.48
2023-05-02T06:26:47.413Z,248.72
2023-05-02T06:27:47.500Z,251.30
2023-05-02T06:28:47.491Z,301.66
2023-05-02T06:29:47.566Z,250.00
2023-05-02T06:30:47.599Z,237.14
2023-05-02T06:31:47.716Z,234.97
2023-05-02T06:32:47.677Z,234.96
2023-05-02T06:33:47.689Z,234.28
2023-05-02T06:34:47.749Z,236.93
2023-05-02T06:35:47.763Z,238.31
2023-05-02T06:36:47.812Z,239.91
2023-05-02T06:37:47.881Z,245.24
2023-05-02T06:38:47.893Z,248.52
2023-05-02T06:39:47.929Z,248.29
2023-05-02T06:40:47.962Z,250.00
2023-05-02T06:41:48.017Z,249.68
2023-05-02T06:42:48.025Z,247.45
2023-05-02T06:43:48.073Z,249.51
2023-05-02T06:44:48.077Z,248.77
2023-05-02T06:45:48.151Z,250.00
2023-05-02T06:46:48.213Z,245.50
2023-05-02T06:47:48.188Z,244.83
2023-05-02T06:48:48.235Z,246.23
